createdAt,value
2019-03-09T00:02:02.228Z,4.67
2019-03-09T00:11:52.513Z,5.00
2019-03-09T00:14:20.828Z,4.93
2019-03-09T00:19:16.380Z,5.20
2019-03-09T00:21:44.622Z,4.75
2019-03-09T00:24:17.182Z,4.70
2019-03-09T00:26:53.139Z,4.70
2019-03-09T00:29:31.764Z,4.30
2019-03-09T00:32:01.815Z,4.60
2019-03-09T00:34:30.095Z,4.53
2019-03-09T00:36:58.570Z,5.03
2019-03-09T00:39:26.791Z,5.30
2019-03-09T00:41:55.008Z,5.00
2019-03-09T00:44:23.314Z,4.63
2019-03-09T00:46:51.644Z,5.30
2019-03-09T00:49:19.884Z,5.23
2019-03-09T00:51:48.094Z,5.00
2019-03-09T00:54:16.333Z,5.10
2019-03-09T00:56:44.609Z,5.30
2019-03-09T00:59:12.793Z,5.53
2019-03-09T01:01:40.987Z,5.40
2019-03-09T01:04:09.175Z,5.33
2019-03-09T01:06:38.161Z,6.20
2019-03-09T01:09:07.272Z,6.40
2019-03-09T01:11:35.495Z,5.90
2019-03-09T01:14:04.890Z,6.43
2019-03-09T01:16:33.161Z,5.57
2019-03-09T01:19:01.368Z,5.45
2019-03-09T01:21:29.573Z,7.60
2019-03-09T01:23:57.789Z,6.10
2019-03-09T01:26:25.977Z,5.80
2019-03-09T01:28:54.220Z,6.30
2019-03-09T01:31:22.401Z,6.90
2019-03-09T01:33:50.612Z,6.27
2019-03-09T01:36:18.875Z,6.03
2019-03-09T01:38:47.086Z,6.30
2019-03-09T01:41:15.300Z,6.43
2019-03-09T01:43:43.717Z,6.83
2019-03-09T01:46:11.900Z,7.13
2019-03-09T01:48:40.165Z,6.80
2019-03-09T01:51:08.445Z,7.60
2019-03-09T01:53:37.129Z,7.00
2019-03-09T01:56:05.549Z,6.13
2019-03-09T01:58:33.772Z,7.03
2019-03-09T02:01:01.981Z,6.50
2019-03-09T02:03:30.181Z,6.57
2019-03-09T02:05:58.367Z,6.20
2019-03-09T02:08:26.598Z,6.50
2019-03-09T02:10:54.779Z,6.90
2019-03-09T02:13:23.180Z,6.77
2019-03-09T02:15:51.400Z,6.53
2019-03-09T02:18:19.685Z,6.73
2019-03-09T02:20:49.045Z,7.03
2019-03-09T02:23:17.263Z,6.30
2019-03-09T02:25:45.491Z,6.50
2019-03-09T02:28:13.700Z,6.60
2019-03-09T02:30:42.893Z,6.47
2019-03-09T02:33:11.080Z,6.83
2019-03-09T02:35:39.337Z,7.87
2019-03-09T02:38:09.228Z,6.73
2019-03-09T02:40:37.444Z,7.23
2019-03-09T02:43:05.644Z,6.37
2019-03-09T02:45:33.913Z,6.77
2019-03-09T02:48:02.163Z,6.30
2019-03-09T02:50:30.417Z,7.10
2019-03-09T02:52:58.631Z,7.00
2019-03-09T02:55:26.830Z,5.50
2019-03-09T02:57:55.040Z,6.70
2019-03-09T03:00:23.252Z,6.20
2019-03-09T03:02:56.047Z,6.33
2019-03-09T03:05:24.274Z,6.37
2019-03-09T03:07:52.593Z,6.40
2019-03-09T03:10:20.809Z,6.73
2019-03-09T03:12:49.081Z,5.63
2019-03-09T03:15:18.856Z,6.00
2019-03-09T03:17:47.066Z,6.30
2019-03-09T03:20:15.305Z,6.77
2019-03-09T03:22:44.514Z,6.20
2019-03-09T03:25:12.790Z,6.53
2019-03-09T03:27:40.969Z,6.10
2019-03-09T03:30:09.261Z,5.73
2019-03-09T03:32:37.752Z,5.87
2019-03-09T03:35:07.521Z,5.50
2019-03-09T03:37:35.746Z,6.00
2019-03-09T03:40:05.439Z,5.60
2019-03-09T03:42:33.649Z,5.40
2019-03-09T03:45:01.906Z,5.10
2019-03-09T03:47:30.190Z,6.03
2019-03-09T03:49:58.373Z,5.43
2019-03-09T03:52:26.570Z,5.80
2019-03-09T03:54:54.847Z,5.47
2019-03-09T03:57:23.060Z,5.80
2019-03-09T03:59:51.546Z,6.20
2019-03-09T04:02:19.814Z,6.03
2019-03-09T04:04:48.065Z,4.87
2019-03-09T04:07:16.459Z,5.90
2019-03-09T04:09:44.865Z,5.80
2019-03-09T04:12:13.213Z,5.97
2019-03-09T04:14:41.441Z,5.70
2019-03-09T04:17:09.699Z,5.93
2019-03-09T04:19:37.939Z,6.20
2019-03-09T04:22:06.158Z,5.90
2019-03-09T04:24:36.015Z,6.80
2019-03-09T04:27:04.234Z,6.10
2019-03-09T04:29:32.540Z,5.53
2019-03-09T04:32:00.761Z,6.30
2019-03-09T04:34:29.108Z,6.73
2019-03-09T04:36:58.944Z,5.60
2019-03-09T04:39:28.080Z,5.53
2019-03-09T04:41:56.350Z,6.20
2019-03-09T04:44:24.533Z,7.00
2019-03-09T04:46:52.771Z,5.47
2019-03-09T04:49:20.960Z,5.70
2019-03-09T04:51:49.148Z,5.97
2019-03-09T04:54:17.377Z,5.83
2019-03-09T04:56:45.605Z,6.07
2019-03-09T04:59:13.787Z,5.27
2019-03-09T05:01:41.977Z,6.67
2019-03-09T05:04:27.043Z,5.83
2019-03-09T05:06:56.226Z,6.07
2019-03-09T05:09:31.813Z,5.80
2019-03-09T05:12:00.012Z,6.17
2019-03-09T05:14:28.190Z,5.40
2019-03-09T05:16:56.388Z,6.00
2019-03-09T05:19:24.641Z,5.27
2019-03-09T05:21:52.874Z,5.70
2019-03-09T05:24:21.064Z,5.47
2019-03-09T05:26:49.247Z,5.90
2019-03-09T05:29:17.493Z,5.20
2019-03-09T05:31:45.680Z,5.20
2019-03-09T05:34:13.918Z,5.23
2019-03-09T05:36:42.126Z,5.53
2019-03-09T05:39:11.908Z,5.10
2019-03-09T05:41:40.085Z,5.40
2019-03-09T05:44:08.298Z,5.30
2019-03-09T05:46:36.551Z,5.90
2019-03-09T05:49:05.624Z,5.00
2019-03-09T05:51:33.880Z,5.33
2019-03-09T05:54:02.133Z,4.57
2019-03-09T05:56:30.354Z,5.37
2019-03-09T05:58:58.633Z,5.50
2019-03-09T06:01:26.873Z,5.20
2019-03-09T06:03:55.132Z,5.20
2019-03-09T06:06:23.400Z,5.73
2019-03-09T06:08:52.613Z,4.97
2019-03-09T06:11:21.784Z,6.00
2019-03-09T06:13:50.037Z,5.70
2019-03-09T06:16:18.260Z,6.20
2019-03-09T06:18:46.486Z,6.33
2019-03-09T06:21:14.697Z,6.40
2019-03-09T06:23:42.946Z,6.77
2019-03-09T06:26:11.154Z,6.40
2019-03-09T06:28:39.368Z,5.57
2019-03-09T06:31:07.605Z,5.87
2019-03-09T06:33:35.816Z,6.33
2019-03-09T06:36:11.625Z,5.77
2019-03-09T06:38:42.320Z,5.43
2019-03-09T06:41:12.094Z,6.00
2019-03-09T06:43:41.249Z,7.45
2019-03-09T06:46:09.519Z,6.00
2019-03-09T06:48:37.727Z,5.87
2019-03-09T06:51:05.948Z,5.40
2019-03-09T06:53:34.162Z,5.97
2019-03-09T06:56:02.391Z,5.50
2019-03-09T06:58:30.572Z,5.10
2019-03-09T07:01:00.066Z,5.73
2019-03-09T07:03:28.300Z,6.23
2019-03-09T07:05:56.492Z,6.30
2019-03-09T07:08:24.704Z,6.03
2019-03-09T07:10:52.891Z,5.40
2019-03-09T07:13:21.120Z,5.90
2019-03-09T07:15:49.323Z,4.37
2019-03-09T07:18:17.518Z,5.63
2019-03-09T07:20:45.735Z,5.63
2019-03-09T07:23:13.980Z,5.50
2019-03-09T07:25:43.589Z,4.53
2019-03-09T07:28:12.990Z,5.17
2019-03-09T07:30:41.212Z,6.03
2019-03-09T07:33:09.406Z,4.97
2019-03-09T07:35:37.641Z,5.87
2019-03-09T07:38:05.838Z,5.50
2019-03-09T07:40:34.024Z,4.80
2019-03-09T07:43:04.172Z,5.40
2019-03-09T07:45:32.216Z,5.70
2019-03-09T07:48:00.421Z,4.80
2019-03-09T07:50:28.641Z,6.10
2019-03-09T07:52:56.805Z,4.80
2019-03-09T07:55:25.024Z,5.70
2019-03-09T07:57:54.744Z,5.27
2019-03-09T08:00:22.968Z,4.57
2019-03-09T08:02:51.131Z,3.80
2019-03-09T08:05:19.360Z,4.10
2019-03-09T08:07:47.579Z,4.37
2019-03-09T08:10:17.321Z,4.03
2019-03-09T08:12:45.549Z,3.57
2019-03-09T08:15:14.803Z,4.00
2019-03-09T08:17:43.049Z,3.10
2019-03-09T08:20:12.266Z,3.50
2019-03-09T08:22:40.439Z,2.10
2019-03-09T08:25:09.483Z,3.40
2019-03-09T08:27:38.567Z,2.03
2019-03-09T08:30:08.311Z,2.50
2019-03-09T08:32:36.564Z,3.10
2019-03-09T08:35:06.131Z,3.20
2019-03-09T08:37:34.296Z,3.30
2019-03-09T08:40:04.621Z,3.53
2019-03-09T08:42:32.846Z,3.07
2019-03-09T08:45:01.156Z,3.13
2019-03-09T08:47:29.349Z,3.13
2019-03-09T08:49:57.604Z,2.17
2019-03-09T08:52:25.887Z,3.00
2019-03-09T08:54:54.160Z,1.93
2019-03-09T08:57:22.340Z,2.13
2019-03-09T08:59:50.577Z,2.50
2019-03-09T09:02:18.780Z,2.57
2019-03-09T09:04:47.031Z,2.77
2019-03-09T09:07:15.204Z,2.90
2019-03-09T09:09:43.483Z,3.10
2019-03-09T09:12:11.720Z,3.50
2019-03-09T09:14:39.896Z,3.50
2019-03-09T09:17:08.100Z,3.80
2019-03-09T09:19:37.172Z,2.85
2019-03-09T09:22:06.817Z,2.50
2019-03-09T09:24:35.368Z,2.85
2019-03-09T09:27:03.623Z,2.60
2019-03-09T09:29:31.898Z,2.70
2019-03-09T09:32:00.076Z,2.47
2019-03-09T09:34:28.310Z,2.67
2019-03-09T09:36:56.476Z,2.60
2019-03-09T09:39:24.680Z,1.90
2019-03-09T09:41:52.868Z,2.37
2019-03-09T09:44:21.069Z,2.43
2019-03-09T09:46:49.293Z,2.60
2019-03-09T09:49:17.530Z,2.80
2019-03-09T09:51:45.734Z,2.40
2019-03-09T09:54:13.977Z,2.23
2019-03-09T09:56:42.193Z,2.40
2019-03-09T09:59:10.381Z,2.43
2019-03-09T10:01:39.384Z,2.40
2019-03-09T10:04:07.591Z,2.50
2019-03-09T10:06:35.788Z,2.50
2019-03-09T10:09:05.324Z,2.73
2019-03-09T10:11:33.537Z,2.60
2019-03-09T10:14:01.711Z,1.90
2019-03-09T10:16:29.921Z,2.20
2019-03-09T10:18:58.092Z,1.80
2019-03-09T10:21:26.312Z,2.03
2019-03-09T10:23:54.491Z,2.00
2019-03-09T10:26:25.666Z,1.80
2019-03-09T10:28:52.600Z,1.67
2019-03-09T10:31:20.768Z,1.70
2019-03-09T10:33:48.996Z,2.10
2019-03-09T10:36:17.269Z,1.70
2019-03-09T10:38:45.444Z,2.40
2019-03-09T10:41:13.709Z,2.07
2019-03-09T10:43:41.881Z,2.27
2019-03-09T10:46:11.069Z,2.70
2019-03-09T10:48:39.262Z,1.90
2019-03-09T10:51:07.469Z,1.90
2019-03-09T10:53:35.685Z,1.80
2019-03-09T10:56:03.852Z,2.10
2019-03-09T10:58:32.055Z,1.63
2019-03-09T11:01:00.232Z,1.73
2019-03-09T11:03:28.407Z,1.90
2019-03-09T11:05:56.627Z,2.07
2019-03-09T11:08:24.811Z,1.70
2019-03-09T11:10:53.038Z,2.27
2019-03-09T11:13:21.341Z,2.23
2019-03-09T11:15:49.569Z,2.10
2019-03-09T11:18:17.744Z,2.60
2019-03-09T11:20:45.931Z,2.20
2019-03-09T11:23:14.206Z,2.50
2019-03-09T11:25:42.409Z,2.20
2019-03-09T11:28:13.463Z,2.20
2019-03-09T11:30:41.688Z,1.90
2019-03-09T11:33:09.871Z,2.63
2019-03-09T11:35:38.049Z,1.83
2019-03-09T11:38:06.321Z,1.60
2019-03-09T11:40:34.504Z,2.03
2019-03-09T11:43:02.705Z,2.10
2019-03-09T11:45:30.948Z,2.20
2019-03-09T11:50:26.491Z,2.47
2019-03-09T11:52:54.700Z,2.00
2019-03-09T11:55:22.869Z,2.30
2019-03-09T11:57:51.083Z,2.37
2019-03-09T12:00:27.454Z,2.17
2019-03-09T12:02:55.706Z,2.03
2019-03-09T12:05:23.886Z,2.87
2019-03-09T12:07:52.121Z,2.10
2019-03-09T12:10:20.329Z,2.40
2019-03-09T12:12:48.508Z,2.30
2019-03-09T12:15:17.902Z,2.03
2019-03-09T12:17:46.169Z,2.30
2019-03-09T12:20:15.107Z,2.03
2019-03-09T12:22:43.309Z,2.10
2019-03-09T12:25:13.104Z,2.20
2019-03-09T12:27:41.312Z,2.67
2019-03-09T12:30:11.107Z,2.10
2019-03-09T12:32:39.314Z,2.47
2019-03-09T12:35:08.117Z,2.33
2019-03-09T12:37:36.399Z,2.37
2019-03-09T12:40:05.773Z,2.37
2019-03-09T12:42:33.959Z,2.07
2019-03-09T12:45:02.229Z,2.47
2019-03-09T12:47:30.544Z,2.40
2019-03-09T12:49:58.763Z,2.10
2019-03-09T12:52:26.939Z,2.00
2019-03-09T12:54:55.170Z,2.73
2019-03-09T12:57:23.351Z,2.50
2019-03-09T12:59:51.593Z,2.23
2019-03-09T13:02:19.785Z,2.27
2019-03-09T13:04:48.000Z,2.63
2019-03-09T13:07:16.193Z,2.53
2019-03-09T13:09:44.400Z,2.43
2019-03-09T13:12:12.682Z,2.50
2019-03-09T13:14:40.873Z,2.50
2019-03-09T13:17:09.087Z,2.10
2019-03-09T13:19:37.265Z,2.57
2019-03-09T13:22:05.444Z,2.87
2019-03-09T13:24:34.606Z,2.97
2019-03-09T13:27:02.780Z,3.03
2019-03-09T13:29:30.967Z,2.53
2019-03-09T13:31:59.189Z,2.40
2019-03-09T13:34:28.284Z,2.40
2019-03-09T13:36:57.380Z,2.70
2019-03-09T13:39:26.488Z,3.23
2019-03-09T13:41:54.734Z,2.97
2019-03-09T13:44:23.037Z,2.87
2019-03-09T13:46:52.161Z,2.60
2019-03-09T13:49:20.328Z,2.43
2019-03-09T13:51:48.544Z,3.07
2019-03-09T13:54:16.773Z,4.03
2019-03-09T13:56:44.952Z,3.60
2019-03-09T13:59:13.128Z,2.63
2019-03-09T14:01:41.356Z,3.93
2019-03-09T14:04:09.547Z,4.10
2019-03-09T14:06:37.763Z,3.57
2019-03-09T14:09:05.974Z,3.65
2019-03-09T14:16:28.929Z,4.50
2019-03-09T14:18:57.152Z,5.40
2019-03-09T14:21:25.437Z,6.40
2019-03-09T14:23:53.654Z,7.00
2019-03-09T14:26:21.870Z,7.15
2019-03-09T14:31:17.602Z,8.20
2019-03-09T14:33:45.925Z,9.20
2019-03-09T14:36:14.129Z,9.10
2019-03-09T14:38:42.393Z,10.50
2019-03-09T14:41:10.652Z,9.20
2019-03-09T14:43:38.906Z,7.77
2019-03-09T14:46:08.016Z,8.37
2019-03-09T14:48:36.265Z,7.50
2019-03-09T14:51:04.436Z,7.53
2019-03-09T14:53:32.677Z,8.13
2019-03-09T14:56:00.976Z,9.30
2019-03-09T14:58:29.175Z,8.70
2019-03-09T15:00:58.261Z,8.00
2019-03-09T15:03:26.505Z,8.40
2019-03-09T15:05:54.719Z,8.13
2019-03-09T15:08:22.937Z,8.00
2019-03-09T15:10:51.111Z,7.90
2019-03-09T15:13:19.357Z,8.00
2019-03-09T15:15:47.579Z,8.33
2019-03-09T15:18:15.787Z,8.37
2019-03-09T15:20:44.039Z,8.27
2019-03-09T15:23:12.242Z,6.90
2019-03-09T15:25:40.446Z,7.07
2019-03-09T15:28:08.714Z,7.50
2019-03-09T15:30:36.989Z,8.63
2019-03-09T15:33:05.164Z,9.10
2019-03-09T15:35:34.229Z,7.43
2019-03-09T15:38:02.458Z,8.60
2019-03-09T15:40:31.604Z,8.55
2019-03-09T15:42:59.850Z,8.40
2019-03-09T15:45:28.100Z,8.07
2019-03-09T15:47:56.289Z,8.40
2019-03-09T15:50:24.609Z,8.90
2019-03-09T15:52:52.833Z,8.67
2019-03-09T15:55:21.121Z,9.60
2019-03-09T15:57:49.449Z,8.60
2019-03-09T16:00:21.287Z,8.27
2019-03-09T16:02:49.614Z,8.20
2019-03-09T16:05:17.821Z,6.70
2019-03-09T16:07:46.032Z,4.40
2019-03-09T16:17:36.360Z,5.60
2019-03-09T16:22:32.829Z,3.05
2019-03-09T16:37:17.989Z,2.30
2019-03-09T16:39:47.103Z,2.70
2019-03-09T16:42:15.310Z,3.00
2019-03-09T16:49:38.289Z,2.50
2019-03-09T16:54:33.889Z,3.90
2019-03-09T17:01:56.886Z,5.80
2019-03-09T17:04:25.125Z,3.83
2019-03-09T17:06:53.400Z,3.93
2019-03-09T17:09:21.568Z,3.20
2019-03-09T17:11:49.833Z,6.87
2019-03-09T17:14:18.024Z,8.10
2019-03-09T17:16:46.236Z,6.27
2019-03-09T17:19:14.445Z,5.50
2019-03-09T17:21:42.654Z,5.27
2019-03-09T17:24:10.885Z,4.33
2019-03-09T17:26:39.089Z,4.27
2019-03-09T17:29:07.353Z,6.07
2019-03-09T17:31:36.337Z,10.40
2019-03-09T17:34:04.516Z,12.00
2019-03-09T17:36:32.747Z,10.27
2019-03-09T17:39:00.950Z,6.70
2019-03-09T17:41:29.217Z,6.73
2019-03-09T17:43:57.448Z,13.97
2019-03-09T17:46:25.663Z,5.07
2019-03-09T17:48:53.877Z,4.03
2019-03-09T17:51:22.167Z,4.30
2019-03-09T17:53:50.383Z,3.80
2019-03-09T17:56:18.627Z,4.30
2019-03-09T17:58:46.985Z,4.00
2019-03-09T18:01:15.232Z,3.67
2019-03-09T18:03:43.472Z,3.83
2019-03-09T18:06:11.693Z,3.70
2019-03-09T18:08:39.985Z,4.00
2019-03-09T18:11:09.289Z,3.63
2019-03-09T18:13:37.500Z,3.37
2019-03-09T18:16:05.716Z,3.83
2019-03-09T18:18:33.899Z,3.60
2019-03-09T18:21:02.157Z,4.37
2019-03-09T18:23:30.357Z,4.00
2019-03-09T18:25:58.598Z,4.87
2019-03-09T18:28:26.810Z,4.10
2019-03-09T18:30:55.021Z,4.53
2019-03-09T18:33:23.184Z,4.30
2019-03-09T18:35:51.416Z,4.13
2019-03-09T18:38:19.591Z,5.10
2019-03-09T18:40:49.655Z,4.70
2019-03-09T18:43:17.697Z,5.40
2019-03-09T18:45:45.901Z,5.40
2019-03-09T18:48:14.151Z,4.23
2019-03-09T18:50:42.353Z,5.40
2019-03-09T18:53:10.587Z,5.27
2019-03-09T18:55:38.853Z,5.30
2019-03-09T18:58:07.072Z,5.60
2019-03-09T19:00:35.354Z,5.30
2019-03-09T19:03:03.553Z,5.90
2019-03-09T19:05:31.769Z,5.40
2019-03-09T19:07:59.980Z,4.90
2019-03-09T19:10:29.052Z,5.60
2019-03-09T19:12:57.234Z,4.33
2019-03-09T19:15:25.449Z,5.50
2019-03-09T19:17:54.617Z,5.23
2019-03-09T19:20:23.699Z,4.60
2019-03-09T19:22:51.921Z,5.40
2019-03-09T19:25:20.128Z,5.27
2019-03-09T19:27:48.348Z,5.30
2019-03-09T19:30:19.868Z,5.73
2019-03-09T19:32:48.092Z,4.60
2019-03-09T19:35:16.306Z,5.13
2019-03-09T19:37:44.533Z,5.30
2019-03-09T19:40:13.816Z,4.67
2019-03-09T19:42:41.984Z,4.85
2019-03-09T19:45:16.505Z,5.80
2019-03-09T19:47:44.736Z,5.60
2019-03-09T19:50:14.132Z,6.30
2019-03-09T19:52:42.394Z,6.50
2019-03-09T19:55:10.596Z,6.70
2019-03-09T19:57:38.768Z,7.33
2019-03-09T20:00:08.561Z,7.30
2019-03-09T20:02:36.761Z,7.07
2019-03-09T20:05:07.420Z,7.20
2019-03-09T20:07:35.792Z,7.90
2019-03-09T20:10:05.853Z,8.87
2019-03-09T20:12:34.043Z,7.80
2019-03-09T20:15:02.227Z,7.77
2019-03-09T20:17:30.414Z,7.53
2019-03-09T20:19:58.629Z,7.37
2019-03-09T20:22:26.831Z,5.57
2019-03-09T20:24:55.026Z,5.10
2019-03-09T20:27:23.240Z,4.50
2019-03-09T20:29:51.445Z,4.43
2019-03-09T20:32:19.685Z,5.53
2019-03-09T20:34:47.859Z,4.37
2019-03-09T20:37:16.082Z,2.47
2019-03-09T20:39:44.290Z,4.20
2019-03-09T20:42:12.489Z,4.10
2019-03-09T20:44:40.692Z,4.40
2019-03-09T20:47:08.893Z,3.00
2019-03-09T20:49:37.093Z,3.35
2019-03-09T20:52:05.345Z,3.30
2019-03-09T20:54:33.557Z,3.03
2019-03-09T20:57:01.840Z,3.17
2019-03-09T20:59:30.072Z,3.30
2019-03-09T21:01:58.277Z,3.17
2019-03-09T21:04:26.514Z,3.40
2019-03-09T21:06:54.688Z,2.40
2019-03-09T21:09:22.889Z,2.60
2019-03-09T21:11:51.101Z,2.75
2019-03-09T21:14:19.291Z,2.80
2019-03-09T21:16:47.497Z,2.40
2019-03-09T21:19:16.880Z,2.23
2019-03-09T21:21:45.105Z,2.60
2019-03-09T21:24:13.276Z,2.23
2019-03-09T21:26:41.472Z,2.20
2019-03-09T21:29:09.676Z,2.00
2019-03-09T21:31:37.927Z,2.30
2019-03-09T21:34:06.165Z,2.20
2019-03-09T21:36:34.377Z,1.63
2019-03-09T21:39:02.578Z,2.43
2019-03-09T21:41:30.747Z,2.03
2019-03-09T21:43:58.929Z,1.90
2019-03-09T21:46:27.135Z,2.40
2019-03-09T21:48:55.345Z,2.20
2019-03-09T21:51:23.536Z,3.40
2019-03-09T21:53:51.740Z,2.83
2019-03-09T21:56:19.941Z,2.70
2019-03-09T21:58:48.119Z,2.23
2019-03-09T22:01:16.303Z,1.97
2019-03-09T22:03:44.492Z,2.10
2019-03-09T22:06:12.749Z,2.50
2019-03-09T22:08:40.948Z,2.20
2019-03-09T22:11:09.261Z,1.90
2019-03-09T22:13:37.461Z,2.30
2019-03-09T22:16:05.637Z,2.03
2019-03-09T22:18:33.832Z,1.70
2019-03-09T22:21:02.049Z,2.40
2019-03-09T22:23:30.265Z,1.60
2019-03-09T22:25:58.487Z,1.50
2019-03-09T22:28:27.679Z,1.90
2019-03-09T22:30:56.835Z,2.00
2019-03-09T22:33:25.016Z,1.60
2019-03-09T22:35:53.188Z,1.90
2019-03-09T22:38:21.405Z,1.80
2019-03-09T22:40:49.601Z,1.73
2019-03-09T22:43:17.812Z,1.53
2019-03-09T22:45:46.012Z,1.90
2019-03-09T22:48:14.197Z,1.93
2019-03-09T22:50:42.405Z,1.40
2019-03-09T22:53:10.590Z,1.50
2019-03-09T22:55:38.760Z,1.63
2019-03-09T22:58:06.936Z,1.83
2019-03-09T23:00:35.521Z,1.57
2019-03-09T23:03:03.684Z,1.43
2019-03-09T23:05:31.971Z,1.90
2019-03-09T23:08:00.231Z,2.17
2019-03-09T23:10:28.412Z,1.70
2019-03-09T23:12:56.662Z,1.80
2019-03-09T23:15:24.904Z,1.40
2019-03-09T23:17:53.180Z,2.60
2019-03-09T23:20:21.381Z,1.30
2019-03-09T23:22:49.594Z,1.60
2019-03-09T23:25:17.781Z,1.70
2019-03-09T23:27:45.993Z,2.23
2019-03-09T23:30:16.620Z,1.70
2019-03-09T23:32:44.825Z,1.93
2019-03-09T23:35:13.024Z,1.67
2019-03-09T23:37:41.287Z,1.80
2019-03-09T23:40:19.122Z,1.77
2019-03-09T23:42:47.302Z,2.10
2019-03-09T23:45:22.229Z,1.77
2019-03-09T23:47:50.478Z,1.80
2019-03-09T23:50:18.747Z,1.70
2019-03-09T23:52:47.132Z,1.87
2019-03-09T23:55:21.902Z,1.97
2019-03-09T23:57:46.549Z,2.10
